KRAC

Batten International Airport

Racine, Wisconsin, USA
METAR KRAC 160053Z AUTO 03005KT 7SM CLR 01/M01 A3020 RMK AO2 SLP235 T00111006
Observed Flight Rules
Dec-16 @ 00:53 UTC (23 minutes ago) Visual Flight Rules
Wind Visibility Clouds
30° at 5 knots 7 miles
  • Clear skies
Temperatures Readings
Current 1°C / 34°F
Dewpoint -1°C / 30°F
Humidity 87%
Altimeter 30.2" Hg
Pressure 1023.5 hPa
Elevation 203
METAR KRAC 160053Z AUTO 03005KT 7SM CLR 01/M01 A3020 RMK AO2 SLP235 T00111006
Observed Flight Rules
Dec-16 @ 00:53 UTC
(23 minutes ago)
VFR
Wind Visibility
30° at 5 knots 7 miles
Clouds
  • Clear skies
Temperature Dewpoint
1°C / 34°F -1°C / 30°F
Humidity Altimeter Pressure
87% 30.2" Hg 1023.5 hPa